sensor_id;sensor_type;location;lat;lon;timestamp;P1;durP1;ratioP1;P2;durP2;ratioP2
8113;SDS011;4099;52.684;9.918;2023-04-24T00:01:15;3.70;;;3.10;;
8113;SDS011;4099;52.684;9.918;2023-04-24T00:06:17;2.80;;;2.60;;
8113;SDS011;4099;52.684;9.918;2023-04-24T00:11:20;2.90;;;2.70;;
8113;SDS011;4099;52.684;9.918;2023-04-24T00:16:22;3.00;;;2.50;;
8113;SDS011;4099;52.684;9.918;2023-04-24T00:21:24;2.50;;;2.30;;
8113;SDS011;4099;52.684;9.918;2023-04-24T00:26:27;2.50;;;2.30;;
8113;SDS011;4099;52.684;9.918;2023-04-24T00:31:29;2.57;;;2.37;;
8113;SDS011;4099;52.684;9.918;2023-04-24T00:36:31;3.13;;;2.23;;
8113;SDS011;4099;52.684;9.918;2023-04-24T00:46:37;1.90;;;1.80;;
8113;SDS011;4099;52.684;9.918;2023-04-24T00:51:39;2.40;;;2.20;;
8113;SDS011;4099;52.684;9.918;2023-04-24T00:56:47;2.43;;;2.03;;
8113;SDS011;4099;52.684;9.918;2023-04-24T01:01:51;1.77;;;1.67;;
8113;SDS011;4099;52.684;9.918;2023-04-24T01:06:53;2.10;;;1.90;;
8113;SDS011;4099;52.684;9.918;2023-04-24T01:11:58;2.60;;;1.70;;
8113;SDS011;4099;52.684;9.918;2023-04-24T01:17:01;1.73;;;1.63;;
8113;SDS011;4099;52.684;9.918;2023-04-24T01:22:08;1.63;;;1.53;;
8113;SDS011;4099;52.684;9.918;2023-04-24T01:27:12;1.80;;;1.70;;
8113;SDS011;4099;52.684;9.918;2023-04-24T01:32:14;1.80;;;1.70;;
8113;SDS011;4099;52.684;9.918;2023-04-24T01:37:17;2.00;;;1.80;;
8113;SDS011;4099;52.684;9.918;2023-04-24T01:42:19;1.50;;;1.37;;
8113;SDS011;4099;52.684;9.918;2023-04-24T01:47:21;1.30;;;1.20;;
8113;SDS011;4099;52.684;9.918;2023-04-24T01:52:25;1.57;;;1.47;;
8113;SDS011;4099;52.684;9.918;2023-04-24T01:57:28;1.60;;;1.50;;
8113;SDS011;4099;52.684;9.918;2023-04-24T02:02:31;1.63;;;1.53;;
8113;SDS011;4099;52.684;9.918;2023-04-24T02:07:34;1.50;;;1.40;;
8113;SDS011;4099;52.684;9.918;2023-04-24T02:12:36;1.47;;;1.37;;
8113;SDS011;4099;52.684;9.918;2023-04-24T02:17:38;1.20;;;1.17;;
8113;SDS011;4099;52.684;9.918;2023-04-24T02:22:42;1.30;;;1.20;;
8113;SDS011;4099;52.684;9.918;2023-04-24T02:27:43;2.17;;;1.60;;
8113;SDS011;4099;52.684;9.918;2023-04-24T02:32:45;1.60;;;1.50;;
8113;SDS011;4099;52.684;9.918;2023-04-24T02:37:48;1.60;;;1.50;;
8113;SDS011;4099;52.684;9.918;2023-04-24T02:42:50;1.60;;;1.50;;
8113;SDS011;4099;52.684;9.918;2023-04-24T02:47:52;1.57;;;1.47;;
8113;SDS011;4099;52.684;9.918;2023-04-24T02:52:55;1.60;;;1.50;;
8113;SDS011;4099;52.684;9.918;2023-04-24T02:57:57;1.40;;;1.30;;
8113;SDS011;4099;52.684;9.918;2023-04-24T03:02:59;2.27;;;1.70;;
8113;SDS011;4099;52.684;9.918;2023-04-24T03:08:02;1.53;;;1.43;;
8113;SDS011;4099;52.684;9.918;2023-04-24T03:13:04;1.50;;;1.40;;
8113;SDS011;4099;52.684;9.918;2023-04-24T03:18:08;1.60;;;1.50;;
8113;SDS011;4099;52.684;9.918;2023-04-24T03:23:11;2.50;;;1.93;;
8113;SDS011;4099;52.684;9.918;2023-04-24T03:28:13;1.83;;;1.50;;
8113;SDS011;4099;52.684;9.918;2023-04-24T03:33:19;1.97;;;1.80;;
8113;SDS011;4099;52.684;9.918;2023-04-24T03:38:32;1.40;;;1.30;;
8113;SDS011;4099;52.684;9.918;2023-04-24T03:43:57;1.40;;;1.30;;
8113;SDS011;4099;52.684;9.918;2023-04-24T03:48:59;2.93;;;1.60;;
8113;SDS011;4099;52.684;9.918;2023-04-24T03:54:07;1.30;;;1.20;;
8113;SDS011;4099;52.684;9.918;2023-04-24T03:59:13;1.57;;;1.40;;
8113;SDS011;4099;52.684;9.918;2023-04-24T04:04:17;1.60;;;1.47;;
8113;SDS011;4099;52.684;9.918;2023-04-24T04:09:21;1.30;;;1.20;;
8113;SDS011;4099;52.684;9.918;2023-04-24T04:14:22;1.70;;;1.17;;
8113;SDS011;4099;52.684;9.918;2023-04-24T04:19:24;1.73;;;1.40;;
8113;SDS011;4099;52.684;9.918;2023-04-24T04:24:28;2.07;;;1.80;;
8113;SDS011;4099;52.684;9.918;2023-04-24T04:29:32;1.60;;;1.50;;
8113;SDS011;4099;52.684;9.918;2023-04-24T04:34:37;2.57;;;1.67;;
8113;SDS011;4099;52.684;9.918;2023-04-24T04:39:43;1.97;;;1.77;;
8113;SDS011;4099;52.684;9.918;2023-04-24T04:44:51;1.87;;;1.53;;
8113;SDS011;4099;52.684;9.918;2023-04-24T04:49:58;1.47;;;1.37;;
8113;SDS011;4099;52.684;9.918;2023-04-24T04:55:03;1.63;;;1.53;;
8113;SDS011;4099;52.684;9.918;2023-04-24T05:00:25;1.70;;;1.60;;
8113;SDS011;4099;52.684;9.918;2023-04-24T05:05:29;3.70;;;2.07;;
8113;SDS011;4099;52.684;9.918;2023-04-24T05:10:32;3.83;;;2.17;;
8113;SDS011;4099;52.684;9.918;2023-04-24T05:15:35;1.73;;;1.50;;
8113;SDS011;4099;52.684;9.918;2023-04-24T05:20:37;2.17;;;1.93;;
8113;SDS011;4099;52.684;9.918;2023-04-24T05:25:41;2.80;;;1.40;;
8113;SDS011;4099;52.684;9.918;2023-04-24T05:30:46;1.40;;;1.30;;
8113;SDS011;4099;52.684;9.918;2023-04-24T05:35:49;1.13;;;1.03;;
8113;SDS011;4099;52.684;9.918;2023-04-24T05:40:53;1.27;;;0.93;;
8113;SDS011;4099;52.684;9.918;2023-04-24T05:45:54;1.00;;;1.00;;
8113;SDS011;4099;52.684;9.918;2023-04-24T05:50:56;1.30;;;1.20;;
8113;SDS011;4099;52.684;9.918;2023-04-24T05:56:00;1.10;;;1.00;;
8113;SDS011;4099;52.684;9.918;2023-04-24T06:01:03;1.87;;;1.20;;
8113;SDS011;4099;52.684;9.918;2023-04-24T06:06:05;1.97;;;1.10;;
8113;SDS011;4099;52.684;9.918;2023-04-24T06:11:10;1.00;;;1.00;;
8113;SDS011;4099;52.684;9.918;2023-04-24T06:16:13;1.30;;;1.20;;
8113;SDS011;4099;52.684;9.918;2023-04-24T06:21:19;1.00;;;1.00;;
8113;SDS011;4099;52.684;9.918;2023-04-24T06:26:22;1.73;;;1.10;;
8113;SDS011;4099;52.684;9.918;2023-04-24T06:31:25;1.00;;;1.00;;
8113;SDS011;4099;52.684;9.918;2023-04-24T06:36:28;1.23;;;1.13;;
8113;SDS011;4099;52.684;9.918;2023-04-24T06:41:32;1.67;;;1.30;;
8113;SDS011;4099;52.684;9.918;2023-04-24T06:46:34;1.70;;;1.60;;
8113;SDS011;4099;52.684;9.918;2023-04-24T06:51:36;1.50;;;1.40;;
8113;SDS011;4099;52.684;9.918;2023-04-24T06:56:39;1.33;;;1.23;;
8113;SDS011;4099;52.684;9.918;2023-04-24T07:01:41;2.07;;;1.97;;
8113;SDS011;4099;52.684;9.918;2023-04-24T07:06:42;3.00;;;2.80;;
8113;SDS011;4099;52.684;9.918;2023-04-24T07:11:46;3.40;;;3.10;;
8113;SDS011;4099;52.684;9.918;2023-04-24T07:16:48;4.30;;;3.90;;
8113;SDS011;4099;52.684;9.918;2023-04-24T07:21:50;4.33;;;4.00;;
8113;SDS011;4099;52.684;9.918;2023-04-24T07:26:55;4.27;;;3.87;;
8113;SDS011;4099;52.684;9.918;2023-04-24T07:31:57;5.17;;;4.23;;
8113;SDS011;4099;52.684;9.918;2023-04-24T07:36:58;4.90;;;4.50;;
8113;SDS011;4099;52.684;9.918;2023-04-24T07:42:02;5.47;;;4.93;;
8113;SDS011;4099;52.684;9.918;2023-04-24T07:47:04;5.73;;;5.03;;
8113;SDS011;4099;52.684;9.918;2023-04-24T07:52:06;5.50;;;5.00;;
8113;SDS011;4099;52.684;9.918;2023-04-24T07:57:09;5.63;;;5.13;;
8113;SDS011;4099;52.684;9.918;2023-04-24T08:02:11;6.50;;;5.77;;
8113;SDS011;4099;52.684;9.918;2023-04-24T08:07:13;5.60;;;5.10;;
8113;SDS011;4099;52.684;9.918;2023-04-24T08:12:16;7.70;;;5.87;;
8113;SDS011;4099;52.684;9.918;2023-04-24T08:17:18;8.43;;;5.87;;
8113;SDS011;4099;52.684;9.918;2023-04-24T08:22:20;6.50;;;5.83;;
8113;SDS011;4099;52.684;9.918;2023-04-24T08:27:23;7.87;;;5.33;;
8113;SDS011;4099;52.684;9.918;2023-04-24T08:32:26;6.60;;;5.87;;
8113;SDS011;4099;52.684;9.918;2023-04-24T08:37:29;7.10;;;6.23;;
8113;SDS011;4099;52.684;9.918;2023-04-24T08:42:32;6.30;;;5.70;;
8113;SDS011;4099;52.684;9.918;2023-04-24T08:47:35;7.43;;;6.67;;
8113;SDS011;4099;52.684;9.918;2023-04-24T08:52:38;7.50;;;6.50;;
8113;SDS011;4099;52.684;9.918;2023-04-24T08:57:43;7.30;;;6.60;;
8113;SDS011;4099;52.684;9.918;2023-04-24T09:02:46;8.10;;;6.90;;
8113;SDS011;4099;52.684;9.918;2023-04-24T09:07:52;7.17;;;6.47;;
8113;SDS011;4099;52.684;9.918;2023-04-24T09:12:57;7.90;;;7.10;;
8113;SDS011;4099;52.684;9.918;2023-04-24T09:18:02;7.23;;;6.50;;
8113;SDS011;4099;52.684;9.918;2023-04-24T09:23:06;7.83;;;6.27;;
8113;SDS011;4099;52.684;9.918;2023-04-24T09:28:11;7.17;;;6.47;;
8113;SDS011;4099;52.684;9.918;2023-04-24T09:33:17;7.27;;;6.47;;
8113;SDS011;4099;52.684;9.918;2023-04-24T09:38:19;7.53;;;6.73;;
8113;SDS011;4099;52.684;9.918;2023-04-24T09:43:33;8.00;;;7.20;;
8113;SDS011;4099;52.684;9.918;2023-04-24T09:48:36;8.77;;;7.47;;
8113;SDS011;4099;52.684;9.918;2023-04-24T09:53:38;8.00;;;7.20;;
8113;SDS011;4099;52.684;9.918;2023-04-24T09:58:46;7.90;;;6.43;;
8113;SDS011;4099;52.684;9.918;2023-04-24T10:03:48;6.70;;;6.10;;
8113;SDS011;4099;52.684;9.918;2023-04-24T10:08:50;7.40;;;6.67;;
8113;SDS011;4099;52.684;9.918;2023-04-24T10:13:53;6.63;;;6.03;;
8113;SDS011;4099;52.684;9.918;2023-04-24T10:18:57;6.27;;;5.67;;
8113;SDS011;4099;52.684;9.918;2023-04-24T10:24:00;5.37;;;4.87;;
8113;SDS011;4099;52.684;9.918;2023-04-24T10:29:06;5.20;;;4.70;;
8113;SDS011;4099;52.684;9.918;2023-04-24T10:34:09;5.20;;;4.53;;
8113;SDS011;4099;52.684;9.918;2023-04-24T10:39:12;5.03;;;4.53;;
8113;SDS011;4099;52.684;9.918;2023-04-24T10:44:27;4.57;;;4.17;;
8113;SDS011;4099;52.684;9.918;2023-04-24T10:49:54;5.40;;;4.90;;
8113;SDS011;4099;52.684;9.918;2023-04-24T10:55:15;5.30;;;4.80;;
8113;SDS011;4099;52.684;9.918;2023-04-24T11:06:28;4.60;;;4.20;;
8113;SDS011;4099;52.684;9.918;2023-04-24T11:11:45;4.30;;;3.90;;
8113;SDS011;4099;52.684;9.918;2023-04-24T11:22:42;4.00;;;3.70;;
8113;SDS011;4099;52.684;9.918;2023-04-24T11:28:03;4.03;;;3.50;;
8113;SDS011;4099;52.684;9.918;2023-04-24T11:44:35;2.77;;;2.57;;
8113;SDS011;4099;52.684;9.918;2023-04-24T11:49:51;2.53;;;2.33;;
8113;SDS011;4099;52.684;9.918;2023-04-24T11:55:22;2.53;;;2.33;;
8113;SDS011;4099;52.684;9.918;2023-04-24T12:06:18;2.70;;;2.50;;
8113;SDS011;4099;52.684;9.918;2023-04-24T12:11:35;2.83;;;2.40;;
8113;SDS011;4099;52.684;9.918;2023-04-24T12:16:56;2.60;;;2.40;;
8113;SDS011;4099;52.684;9.918;2023-04-24T12:22:15;4.43;;;2.30;;
8113;SDS011;4099;52.684;9.918;2023-04-24T12:27:33;2.60;;;1.93;;
8113;SDS011;4099;52.684;9.918;2023-04-24T12:38:09;3.10;;;2.00;;
8113;SDS011;4099;52.684;9.918;2023-04-24T12:43:28;2.30;;;2.00;;
8113;SDS011;4099;52.684;9.918;2023-04-24T12:54:18;2.40;;;2.20;;
8113;SDS011;4099;52.684;9.918;2023-04-24T12:59:37;2.50;;;2.30;;
8113;SDS011;4099;52.684;9.918;2023-04-24T13:04:55;2.47;;;2.10;;
8113;SDS011;4099;52.684;9.918;2023-04-24T13:10:12;2.60;;;2.40;;
8113;SDS011;4099;52.684;9.918;2023-04-24T13:15:28;2.40;;;2.20;;
8113;SDS011;4099;52.684;9.918;2023-04-24T13:20:35;2.07;;;1.97;;
8113;SDS011;4099;52.684;9.918;2023-04-24T13:25:53;2.63;;;2.43;;
8113;SDS011;4099;52.684;9.918;2023-04-24T13:31:12;2.53;;;2.33;;
8113;SDS011;4099;52.684;9.918;2023-04-24T13:42:27;3.10;;;2.07;;
8113;SDS011;4099;52.684;9.918;2023-04-24T13:47:32;2.00;;;1.90;;
8113;SDS011;4099;52.684;9.918;2023-04-24T13:52:42;1.60;;;1.50;;
8113;SDS011;4099;52.684;9.918;2023-04-24T14:15:03;1.60;;;1.50;;
8113;SDS011;4099;52.684;9.918;2023-04-24T14:20:22;1.80;;;1.70;;
8113;SDS011;4099;52.684;9.918;2023-04-24T14:36:51;4.03;;;3.63;;
8113;SDS011;4099;52.684;9.918;2023-04-24T14:42:11;4.30;;;3.90;;
8113;SDS011;4099;52.684;9.918;2023-04-24T14:53:03;6.93;;;4.77;;
8113;SDS011;4099;52.684;9.918;2023-04-24T14:58:12;3.90;;;3.60;;
8113;SDS011;4099;52.684;9.918;2023-04-24T15:03:35;3.57;;;3.20;;
8113;SDS011;4099;52.684;9.918;2023-04-24T15:08:51;3.93;;;3.53;;
8113;SDS011;4099;52.684;9.918;2023-04-24T15:14:07;3.57;;;3.27;;
8113;SDS011;4099;52.684;9.918;2023-04-24T15:24:50;4.60;;;3.40;;
8113;SDS011;4099;52.684;9.918;2023-04-24T15:30:07;3.70;;;3.40;;
8113;SDS011;4099;52.684;9.918;2023-04-24T15:57:57;5.90;;;5.30;;
8113;SDS011;4099;52.684;9.918;2023-04-24T16:03:13;6.33;;;5.07;;
8113;SDS011;4099;52.684;9.918;2023-04-24T16:25:14;39.13;;;23.57;;
8113;SDS011;4099;52.684;9.918;2023-04-24T16:30:31;34.30;;;24.47;;
8113;SDS011;4099;52.684;9.918;2023-04-24T17:10:09;8.83;;;6.77;;
8113;SDS011;4099;52.684;9.918;2023-04-24T17:15:19;10.50;;;7.80;;
8113;SDS011;4099;52.684;9.918;2023-04-24T17:26:12;7.73;;;6.17;;
8113;SDS011;4099;52.684;9.918;2023-04-24T17:31:21;10.50;;;6.70;;
8113;SDS011;4099;52.684;9.918;2023-04-24T17:36:39;7.40;;;5.57;;
8113;SDS011;4099;52.684;9.918;2023-04-24T17:41:41;11.27;;;5.50;;
8113;SDS011;4099;52.684;9.918;2023-04-24T17:46:58;7.63;;;5.57;;
8113;SDS011;4099;52.684;9.918;2023-04-24T17:57:53;5.93;;;5.33;;
8113;SDS011;4099;52.684;9.918;2023-04-24T18:03:09;8.93;;;5.53;;
8113;SDS011;4099;52.684;9.918;2023-04-24T18:08:26;5.90;;;5.27;;
8113;SDS011;4099;52.684;9.918;2023-04-24T18:19:04;6.43;;;5.10;;
8113;SDS011;4099;52.684;9.918;2023-04-24T18:24:20;5.20;;;4.63;;
8113;SDS011;4099;52.684;9.918;2023-04-24T18:29:26;8.83;;;5.27;;
8113;SDS011;4099;52.684;9.918;2023-04-24T18:34:43;6.67;;;5.03;;
8113;SDS011;4099;52.684;9.918;2023-04-24T18:40:00;7.47;;;4.50;;
8113;SDS011;4099;52.684;9.918;2023-04-24T18:45:19;8.37;;;4.40;;
8113;SDS011;4099;52.684;9.918;2023-04-24T18:56:15;6.33;;;4.03;;
8113;SDS011;4099;52.684;9.918;2023-04-24T19:01:22;6.37;;;3.73;;
8113;SDS011;4099;52.684;9.918;2023-04-24T19:18:20;5.17;;;3.70;;
8113;SDS011;4099;52.684;9.918;2023-04-24T19:23:38;5.77;;;3.90;;
8113;SDS011;4099;52.684;9.918;2023-04-24T19:28:56;7.20;;;3.50;;
8113;SDS011;4099;52.684;9.918;2023-04-24T19:40:02;5.77;;;3.67;;
8113;SDS011;4099;52.684;9.918;2023-04-24T19:45:22;5.17;;;3.50;;
8113;SDS011;4099;52.684;9.918;2023-04-24T20:07:23;6.60;;;3.10;;
8113;SDS011;4099;52.684;9.918;2023-04-24T20:12:43;4.73;;;3.37;;
8113;SDS011;4099;52.684;9.918;2023-04-24T20:24:18;11.50;;;3.40;;
8113;SDS011;4099;52.684;9.918;2023-04-24T20:29:26;5.77;;;3.27;;
8113;SDS011;4099;52.684;9.918;2023-04-24T20:34:31;6.20;;;3.63;;
8113;SDS011;4099;52.684;9.918;2023-04-24T21:08:06;9.20;;;4.93;;
8113;SDS011;4099;52.684;9.918;2023-04-24T21:13:25;9.60;;;4.57;;
8113;SDS011;4099;52.684;9.918;2023-04-24T21:30:01;5.90;;;3.63;;
8113;SDS011;4099;52.684;9.918;2023-04-24T21:35:09;6.43;;;4.60;;
8113;SDS011;4099;52.684;9.918;2023-04-24T21:51:41;6.57;;;4.00;;
8113;SDS011;4099;52.684;9.918;2023-04-24T21:56:59;9.80;;;4.50;;
8113;SDS011;4099;52.684;9.918;2023-04-24T22:02:21;6.87;;;4.40;;
8113;SDS011;4099;52.684;9.918;2023-04-24T22:07:37;6.80;;;4.07;;
8113;SDS011;4099;52.684;9.918;2023-04-24T22:12:54;7.63;;;4.37;;
8113;SDS011;4099;52.684;9.918;2023-04-24T22:29:44;8.60;;;3.90;;
8113;SDS011;4099;52.684;9.918;2023-04-24T22:35:00;7.73;;;4.60;;
8113;SDS011;4099;52.684;9.918;2023-04-24T22:40:28;7.23;;;4.57;;
8113;SDS011;4099;52.684;9.918;2023-04-24T22:45:48;9.63;;;4.77;;
8113;SDS011;4099;52.684;9.918;2023-04-24T22:50:54;6.87;;;4.47;;
8113;SDS011;4099;52.684;9.918;2023-04-24T23:12:47;10.70;;;4.40;;
8113;SDS011;4099;52.684;9.918;2023-04-24T23:23:56;9.03;;;4.57;;
8113;SDS011;4099;52.684;9.918;2023-04-24T23:29:13;10.73;;;5.00;;
8113;SDS011;4099;52.684;9.918;2023-04-24T23:51:28;8.30;;;5.13;;
8113;SDS011;4099;52.684;9.918;2023-04-24T23:56:45;8.67;;;4.97;;
